sensor_id;sensor_type;location;lat;lon;timestamp;pressure;altitude;pressure_sealevel;temperature;humidity
65997;BME280;52765;52.258;21.052;2023-09-18T00:02:20;100818.53;;;19.28;100.00
65997;BME280;52765;52.258;21.052;2023-09-18T00:04:45;100829.47;;;19.28;100.00
65997;BME280;52765;52.258;21.052;2023-09-18T00:07:11;100818.75;;;19.27;100.00
65997;BME280;52765;52.258;21.052;2023-09-18T00:09:36;100808.84;;;19.19;100.00
65997;BME280;52765;52.258;21.052;2023-09-18T00:12:02;100817.28;;;19.24;100.00
65997;BME280;52765;52.258;21.052;2023-09-18T00:14:27;100814.31;;;19.19;100.00
65997;BME280;52765;52.258;21.052;2023-09-18T00:16:53;100813.69;;;19.17;100.00
65997;BME280;52765;52.258;21.052;2023-09-18T00:19:18;100818.03;;;19.11;100.00
65997;BME280;52765;52.258;21.052;2023-09-18T00:21:44;100814.25;;;19.06;100.00
65997;BME280;52765;52.258;21.052;2023-09-18T00:24:09;100820.75;;;19.04;100.00
65997;BME280;52765;52.258;21.052;2023-09-18T00:26:37;100805.59;;;18.95;100.00
65997;BME280;52765;52.258;21.052;2023-09-18T00:29:02;100818.16;;;18.96;100.00
65997;BME280;52765;52.258;21.052;2023-09-18T00:31:27;100812.91;;;18.95;100.00
65997;BME280;52765;52.258;21.052;2023-09-18T00:33:53;100821.28;;;18.93;100.00
65997;BME280;52765;52.258;21.052;2023-09-18T00:36:18;100828.41;;;18.88;100.00
65997;BME280;52765;52.258;21.052;2023-09-18T00:38:43;100821.66;;;18.83;100.00
65997;BME280;52765;52.258;21.052;2023-09-18T00:41:10;100816.97;;;18.77;100.00
65997;BME280;52765;52.258;21.052;2023-09-18T00:43:35;100825.34;;;18.76;100.00
65997;BME280;52765;52.258;21.052;2023-09-18T00:46:02;100813.13;;;18.72;100.00
65997;BME280;52765;52.258;21.052;2023-09-18T00:48:27;100813.28;;;18.63;100.00
65997;BME280;52765;52.258;21.052;2023-09-18T00:50:54;100818.97;;;18.62;100.00
65997;BME280;52765;52.258;21.052;2023-09-18T00:53:21;100818.69;;;18.57;100.00
65997;BME280;52765;52.258;21.052;2023-09-18T00:55:50;100819.13;;;18.54;100.00
65997;BME280;52765;52.258;21.052;2023-09-18T00:58:17;100809.81;;;18.48;100.00
65997;BME280;52765;52.258;21.052;2023-09-18T01:00:44;100814.63;;;18.46;100.00
65997;BME280;52765;52.258;21.052;2023-09-18T01:03:09;100814.63;;;18.46;100.00
65997;BME280;52765;52.258;21.052;2023-09-18T01:05:36;100819.25;;;18.45;100.00
65997;BME280;52765;52.258;21.052;2023-09-18T01:08:01;100809.56;;;18.43;100.00
65997;BME280;52765;52.258;21.052;2023-09-18T01:10:36;100828.66;;;18.43;100.00
65997;BME280;52765;52.258;21.052;2023-09-18T01:13:11;100816.69;;;18.37;100.00
65997;BME280;52765;52.258;21.052;2023-09-18T01:15:57;100825.88;;;18.36;100.00
65997;BME280;52765;52.258;21.052;2023-09-18T01:18:27;100830.25;;;18.30;100.00
65997;BME280;52765;52.258;21.052;2023-09-18T01:20:53;100824.34;;;18.27;100.00
65997;BME280;52765;52.258;21.052;2023-09-18T01:23:18;100815.69;;;18.23;100.00
65997;BME280;52765;52.258;21.052;2023-09-18T01:25:44;100815.44;;;18.18;100.00
65997;BME280;52765;52.258;21.052;2023-09-18T01:28:09;100821.94;;;18.17;100.00
65997;BME280;52765;52.258;21.052;2023-09-18T01:30:35;100818.78;;;18.14;100.00
65997;BME280;52765;52.258;21.052;2023-09-18T01:33:02;100820.63;;;18.13;100.00
65997;BME280;52765;52.258;21.052;2023-09-18T01:35:29;100826.97;;;18.14;100.00
65997;BME280;52765;52.258;21.052;2023-09-18T01:37:57;100816.44;;;18.10;100.00
65997;BME280;52765;52.258;21.052;2023-09-18T01:40:24;100823.75;;;18.10;100.00
65997;BME280;52765;52.258;21.052;2023-09-18T01:42:50;100823.38;;;18.13;100.00
65997;BME280;52765;52.258;21.052;2023-09-18T01:45:16;100817.66;;;18.08;100.00
65997;BME280;52765;52.258;21.052;2023-09-18T01:47:41;100812.59;;;18.05;100.00
65997;BME280;52765;52.258;21.052;2023-09-18T01:50:07;100822.66;;;18.04;100.00
65997;BME280;52765;52.258;21.052;2023-09-18T01:52:32;100812.13;;;18.01;100.00
65997;BME280;52765;52.258;21.052;2023-09-18T01:55:00;100814.22;;;17.99;100.00
65997;BME280;52765;52.258;21.052;2023-09-18T01:57:25;100814.59;;;17.96;100.00
65997;BME280;52765;52.258;21.052;2023-09-18T01:59:51;100813.78;;;17.96;100.00
65997;BME280;52765;52.258;21.052;2023-09-18T02:02:16;100809.72;;;17.91;100.00
65997;BME280;52765;52.258;21.052;2023-09-18T02:04:42;100809.72;;;17.91;100.00
65997;BME280;52765;52.258;21.052;2023-09-18T02:07:08;100806.72;;;17.86;100.00
65997;BME280;52765;52.258;21.052;2023-09-18T02:09:34;100802.13;;;17.87;100.00
65997;BME280;52765;52.258;21.052;2023-09-18T02:11:59;100799.41;;;17.87;100.00
65997;BME280;52765;52.258;21.052;2023-09-18T02:14:25;100790.56;;;17.85;100.00
65997;BME280;52765;52.258;21.052;2023-09-18T02:16:50;100795.16;;;17.84;100.00
65997;BME280;52765;52.258;21.052;2023-09-18T02:19:17;100805.25;;;17.84;100.00
65997;BME280;52765;52.258;21.052;2023-09-18T02:21:43;100801.84;;;17.82;100.00
65997;BME280;52765;52.258;21.052;2023-09-18T02:24:09;100789.28;;;17.81;100.00
65997;BME280;52765;52.258;21.052;2023-09-18T02:26:35;100792.38;;;17.78;100.00
65997;BME280;52765;52.258;21.052;2023-09-18T02:29:04;100786.09;;;17.77;100.00
65997;BME280;52765;52.258;21.052;2023-09-18T02:31:29;100793.03;;;17.80;100.00
65997;BME280;52765;52.258;21.052;2023-09-18T02:33:55;100787.56;;;17.80;100.00
65997;BME280;52765;52.258;21.052;2023-09-18T02:36:21;100796.59;;;17.80;100.00
65997;BME280;52765;52.258;21.052;2023-09-18T02:38:46;100782.13;;;17.80;100.00
65997;BME280;52765;52.258;21.052;2023-09-18T02:41:12;100773.50;;;17.76;100.00
65997;BME280;52765;52.258;21.052;2023-09-18T02:43:37;100782.13;;;17.80;100.00
65997;BME280;52765;52.258;21.052;2023-09-18T02:46:04;100775.00;;;17.79;100.00
65997;BME280;52765;52.258;21.052;2023-09-18T02:48:30;100775.66;;;17.81;100.00
65997;BME280;52765;52.258;21.052;2023-09-18T02:50:56;100778.56;;;17.79;100.00
65997;BME280;52765;52.258;21.052;2023-09-18T02:53:31;100773.19;;;17.86;100.00
65997;BME280;52765;52.258;21.052;2023-09-18T02:55:58;100772.34;;;17.85;100.00
65997;BME280;52765;52.258;21.052;2023-09-18T02:58:24;100777.41;;;17.88;100.00
65997;BME280;52765;52.258;21.052;2023-09-18T03:00:52;100767.09;;;17.84;100.00
65997;BME280;52765;52.258;21.052;2023-09-18T03:03:18;100767.28;;;17.82;100.00
65997;BME280;52765;52.258;21.052;2023-09-18T03:05:44;100770.84;;;17.83;100.00
65997;BME280;52765;52.258;21.052;2023-09-18T03:08:14;100769.13;;;17.82;100.00
65997;BME280;52765;52.258;21.052;2023-09-18T03:10:40;100770.47;;;17.86;100.00
65997;BME280;52765;52.258;21.052;2023-09-18T03:13:07;100780.53;;;17.85;100.00
65997;BME280;52765;52.258;21.052;2023-09-18T03:15:33;100771.88;;;17.82;100.00
65997;BME280;52765;52.258;21.052;2023-09-18T03:17:59;100773.38;;;17.84;100.00
65997;BME280;52765;52.258;21.052;2023-09-18T03:20:26;100778.63;;;17.86;100.00
65997;BME280;52765;52.258;21.052;2023-09-18T03:22:53;100780.91;;;17.82;100.00
65997;BME280;52765;52.258;21.052;2023-09-18T03:25:19;100782.31;;;17.78;100.00
65997;BME280;52765;52.258;21.052;2023-09-18T03:27:44;100777.91;;;17.77;100.00
65997;BME280;52765;52.258;21.052;2023-09-18T03:30:10;100780.66;;;17.77;100.00
65997;BME280;52765;52.258;21.052;2023-09-18T03:32:38;100778.75;;;17.78;100.00
65997;BME280;52765;52.258;21.052;2023-09-18T03:35:03;100768.50;;;17.80;100.00
65997;BME280;52765;52.258;21.052;2023-09-18T03:37:29;100773.75;;;17.81;100.00
65997;BME280;52765;52.258;21.052;2023-09-18T03:39:54;100773.69;;;17.74;100.00
65997;BME280;52765;52.258;21.052;2023-09-18T03:42:20;100778.94;;;17.76;100.00
65997;BME280;52765;52.258;21.052;2023-09-18T03:44:46;100778.94;;;17.76;100.00
65997;BME280;52765;52.258;21.052;2023-09-18T03:47:11;100780.66;;;17.77;100.00
65997;BME280;52765;52.258;21.052;2023-09-18T03:49:36;100782.50;;;17.76;100.00
65997;BME280;52765;52.258;21.052;2023-09-18T03:52:02;100784.13;;;17.71;100.00
65997;BME280;52765;52.258;21.052;2023-09-18T03:54:27;100783.69;;;17.67;100.00
65997;BME280;52765;52.258;21.052;2023-09-18T03:56:53;100783.88;;;17.66;100.00
65997;BME280;52765;52.258;21.052;2023-09-18T03:59:18;100774.19;;;17.63;100.00
65997;BME280;52765;52.258;21.052;2023-09-18T04:01:44;100777.59;;;17.65;100.00
65997;BME280;52765;52.258;21.052;2023-09-18T04:04:10;100775.69;;;17.66;100.00
65997;BME280;52765;52.258;21.052;2023-09-18T04:06:45;100779.25;;;17.66;100.00
65997;BME280;52765;52.258;21.052;2023-09-18T04:09:11;100777.97;;;17.62;100.00
65997;BME280;52765;52.258;21.052;2023-09-18T04:11:37;100781.47;;;17.56;100.00
65997;BME280;52765;52.258;21.052;2023-09-18T04:14:03;100776.19;;;17.54;100.00
65997;BME280;52765;52.258;21.052;2023-09-18T04:16:28;100768.03;;;17.54;100.00
65997;BME280;52765;52.258;21.052;2023-09-18T04:18:56;100762.00;;;17.59;100.00
65997;BME280;52765;52.258;21.052;2023-09-18T04:21:21;100767.66;;;17.57;100.00
65997;BME280;52765;52.258;21.052;2023-09-18T04:23:47;100760.13;;;17.60;100.00
65997;BME280;52765;52.258;21.052;2023-09-18T04:26:13;100764.72;;;17.59;100.00
65997;BME280;52765;52.258;21.052;2023-09-18T04:28:41;100763.50;;;17.62;100.00
65997;BME280;52765;52.258;21.052;2023-09-18T04:31:07;100757.66;;;17.65;100.00
65997;BME280;52765;52.258;21.052;2023-09-18T04:33:32;100765.84;;;17.65;100.00
65997;BME280;52765;52.258;21.052;2023-09-18T04:35:58;100754.75;;;17.66;100.00
65997;BME280;52765;52.258;21.052;2023-09-18T04:38:23;100754.56;;;17.68;100.00
65997;BME280;52765;52.258;21.052;2023-09-18T04:40:49;100748.47;;;17.66;100.00
65997;BME280;52765;52.258;21.052;2023-09-18T04:43:14;100756.06;;;17.70;100.00
65997;BME280;52765;52.258;21.052;2023-09-18T04:45:40;100758.97;;;17.69;100.00
65997;BME280;52765;52.258;21.052;2023-09-18T04:48:05;100752.03;;;17.66;100.00
65997;BME280;52765;52.258;21.052;2023-09-18T04:50:33;100746.38;;;17.68;100.00
65997;BME280;52765;52.258;21.052;2023-09-18T04:52:59;100747.47;;;17.73;100.00
65997;BME280;52765;52.258;21.052;2023-09-18T04:55:25;100745.41;;;17.75;100.00
65997;BME280;52765;52.258;21.052;2023-09-18T04:57:50;100753.66;;;17.82;100.00
65997;BME280;52765;52.258;21.052;2023-09-18T05:00:17;100750.53;;;17.85;100.00
65997;BME280;52765;52.258;21.052;2023-09-18T05:02:43;100746.75;;;17.86;100.00
65997;BME280;52765;52.258;21.052;2023-09-18T05:05:08;100749.03;;;17.83;100.00
65997;BME280;52765;52.258;21.052;2023-09-18T05:07:35;100754.50;;;17.83;100.00
65997;BME280;52765;52.258;21.052;2023-09-18T05:10:00;100747.16;;;17.83;100.00
65997;BME280;52765;52.258;21.052;2023-09-18T05:12:25;100744.03;;;17.86;100.00
65997;BME280;52765;52.258;21.052;2023-09-18T05:14:51;100740.97;;;17.89;100.00
65997;BME280;52765;52.258;21.052;2023-09-18T05:17:17;100739.94;;;17.90;100.00
65997;BME280;52765;52.258;21.052;2023-09-18T05:19:43;100733.22;;;17.93;100.00
65997;BME280;52765;52.258;21.052;2023-09-18T05:22:09;100738.28;;;17.96;100.00
65997;BME280;52765;52.258;21.052;2023-09-18T05:24:39;100726.38;;;17.97;100.00
65997;BME280;52765;52.258;21.052;2023-09-18T05:27:04;100729.97;;;18.04;100.00
65997;BME280;52765;52.258;21.052;2023-09-18T05:29:34;100727.91;;;18.06;100.00
65997;BME280;52765;52.258;21.052;2023-09-18T05:32:01;100727.50;;;18.09;100.00
65997;BME280;52765;52.258;21.052;2023-09-18T05:34:26;100722.50;;;18.13;100.00
65997;BME280;52765;52.258;21.052;2023-09-18T05:36:52;100731.13;;;18.17;100.00
65997;BME280;52765;52.258;21.052;2023-09-18T05:39:18;100730.47;;;18.15;100.00
65997;BME280;52765;52.258;21.052;2023-09-18T05:41:43;100712.66;;;18.12;100.00
65997;BME280;52765;52.258;21.052;2023-09-18T05:44:09;100716.22;;;18.12;100.00
65997;BME280;52765;52.258;21.052;2023-09-18T05:46:35;100717.47;;;18.17;100.00
65997;BME280;52765;52.258;21.052;2023-09-18T05:49:00;100717.09;;;18.20;100.00
65997;BME280;52765;52.258;21.052;2023-09-18T05:51:26;100702.63;;;18.19;100.00
65997;BME280;52765;52.258;21.052;2023-09-18T05:53:53;100707.88;;;18.21;100.00
65997;BME280;52765;52.258;21.052;2023-09-18T05:56:18;100706.63;;;18.23;100.00
65997;BME280;52765;52.258;21.052;2023-09-18T05:58:44;100706.00;;;18.21;100.00
65997;BME280;52765;52.258;21.052;2023-09-18T06:01:09;100700.53;;;18.21;100.00
65997;BME280;52765;52.258;21.052;2023-09-18T06:03:35;100701.66;;;18.27;100.00
65997;BME280;52765;52.258;21.052;2023-09-18T06:06:04;100699.56;;;18.29;100.00
65997;BME280;52765;52.258;21.052;2023-09-18T06:08:30;100705.25;;;18.34;100.00
65997;BME280;52765;52.258;21.052;2023-09-18T06:10:56;100699.41;;;18.37;100.00
65997;BME280;52765;52.258;21.052;2023-09-18T06:13:24;100706.56;;;18.45;100.00
65997;BME280;52765;52.258;21.052;2023-09-18T06:15:50;100698.63;;;18.50;100.00
65997;BME280;52765;52.258;21.052;2023-09-18T06:18:18;100692.97;;;18.52;100.00
65997;BME280;52765;52.258;21.052;2023-09-18T06:20:48;100702.00;;;18.52;100.00
65997;BME280;52765;52.258;21.052;2023-09-18T06:23:14;100699.09;;;18.54;100.00
65997;BME280;52765;52.258;21.052;2023-09-18T06:25:40;100700.16;;;18.59;100.00
65997;BME280;52765;52.258;21.052;2023-09-18T06:28:06;100705.63;;;18.59;100.00
65997;BME280;52765;52.258;21.052;2023-09-18T06:30:32;100708.97;;;18.61;100.00
65997;BME280;52765;52.258;21.052;2023-09-18T06:33:01;100706.69;;;18.65;100.00
65997;BME280;52765;52.258;21.052;2023-09-18T06:35:27;100700.81;;;18.68;100.00
65997;BME280;52765;52.258;21.052;2023-09-18T06:37:53;100705.09;;;18.77;100.00
65997;BME280;52765;52.258;21.052;2023-09-18T06:40:23;100696.97;;;18.84;100.00
65997;BME280;52765;52.258;21.052;2023-09-18T06:42:49;100698.66;;;18.92;100.00
65997;BME280;52765;52.258;21.052;2023-09-18T06:45:14;100688.00;;;18.97;100.00
65997;BME280;52765;52.258;21.052;2023-09-18T06:47:40;100693.25;;;19.05;100.00
65997;BME280;52765;52.258;21.052;2023-09-18T06:50:06;100698.13;;;19.16;100.00
65997;BME280;52765;52.258;21.052;2023-09-18T06:52:32;100692.47;;;19.18;100.00
65997;BME280;52765;52.258;21.052;2023-09-18T06:55:06;100682.63;;;19.23;100.00
65997;BME280;52765;52.258;21.052;2023-09-18T06:57:32;100696.28;;;19.30;100.00
65997;BME280;52765;52.258;21.052;2023-09-18T06:59:57;100690.66;;;19.38;100.00
65997;BME280;52765;52.258;21.052;2023-09-18T07:02:22;100702.44;;;19.52;100.00
65997;BME280;52765;52.258;21.052;2023-09-18T07:04:48;100689.19;;;19.63;100.00
65997;BME280;52765;52.258;21.052;2023-09-18T07:07:14;100690.50;;;19.73;100.00
65997;BME280;52765;52.258;21.052;2023-09-18T07:09:40;100688.22;;;19.84;100.00
65997;BME280;52765;52.258;21.052;2023-09-18T07:12:07;100688.63;;;19.87;100.00
65997;BME280;52765;52.258;21.052;2023-09-18T07:14:32;100693.69;;;19.97;100.00
65997;BME280;52765;52.258;21.052;2023-09-18T07:16:58;100690.28;;;20.02;100.00
65997;BME280;52765;52.258;21.052;2023-09-18T07:19:24;100694.50;;;20.11;100.00
65997;BME280;52765;52.258;21.052;2023-09-18T07:21:50;100692.16;;;20.21;100.00
65997;BME280;52765;52.258;21.052;2023-09-18T07:24:16;100682.69;;;20.30;100.00
65997;BME280;52765;52.258;21.052;2023-09-18T07:26:46;100686.25;;;20.44;100.00
65997;BME280;52765;52.258;21.052;2023-09-18T07:29:13;100684.13;;;20.53;100.00
65997;BME280;52765;52.258;21.052;2023-09-18T07:31:40;100694.00;;;20.67;100.00
65997;BME280;52765;52.258;21.052;2023-09-18T07:34:06;100689.75;;;20.78;100.00
65997;BME280;52765;52.258;21.052;2023-09-18T07:36:31;100683.41;;;20.84;100.00
65997;BME280;52765;52.258;21.052;2023-09-18T07:38:57;100682.56;;;20.91;100.00
65997;BME280;52765;52.258;21.052;2023-09-18T07:41:22;100685.44;;;21.02;100.00
65997;BME280;52765;52.258;21.052;2023-09-18T07:43:48;100683.72;;;21.08;100.00
65997;BME280;52765;52.258;21.052;2023-09-18T07:46:14;100683.06;;;21.13;100.00
65997;BME280;52765;52.258;21.052;2023-09-18T07:48:39;100680.09;;;21.21;100.00
65997;BME280;52765;52.258;21.052;2023-09-18T07:51:05;100677.91;;;21.30;100.00
65997;BME280;52765;52.258;21.052;2023-09-18T07:53:30;100678.56;;;21.32;100.00
65997;BME280;52765;52.258;21.052;2023-09-18T07:55:58;100691.53;;;21.43;100.00
65997;BME280;52765;52.258;21.052;2023-09-18T07:58:25;100684.38;;;21.49;100.00
65997;BME280;52765;52.258;21.052;2023-09-18T08:00:54;100682.22;;;21.57;100.00
65997;BME280;52765;52.258;21.052;2023-09-18T08:03:20;100683.84;;;21.65;100.00
65997;BME280;52765;52.258;21.052;2023-09-18T08:05:49;100681.91;;;21.72;100.00
65997;BME280;52765;52.258;21.052;2023-09-18T08:08:15;100677.41;;;21.78;100.00
65997;BME280;52765;52.258;21.052;2023-09-18T08:10:41;100674.22;;;21.81;100.00
65997;BME280;52765;52.258;21.052;2023-09-18T08:15:32;100668.84;;;21.93;100.00
65997;BME280;52765;52.258;21.052;2023-09-18T08:17:57;100660.41;;;21.94;100.00
65997;BME280;52765;52.258;21.052;2023-09-18T08:20:25;100658.63;;;22.07;100.00
65997;BME280;52765;52.258;21.052;2023-09-18T08:22:57;100659.81;;;22.11;99.87
65997;BME280;52765;52.258;21.052;2023-09-18T08:25:30;100661.84;;;22.22;100.00
65997;BME280;52765;52.258;21.052;2023-09-18T08:27:56;100662.81;;;22.28;99.77
65997;BME280;52765;52.258;21.052;2023-09-18T08:30:21;100659.00;;;22.35;99.67
65997;BME280;52765;52.258;21.052;2023-09-18T08:32:47;100658.69;;;22.44;99.49
65997;BME280;52765;52.258;21.052;2023-09-18T08:35:13;100661.38;;;22.50;98.61
65997;BME280;52765;52.258;21.052;2023-09-18T08:37:40;100655.56;;;22.59;98.38
65997;BME280;52765;52.258;21.052;2023-09-18T08:40:10;100649.84;;;22.60;97.71
65997;BME280;52765;52.258;21.052;2023-09-18T08:42:39;100661.34;;;22.69;97.08
65997;BME280;52765;52.258;21.052;2023-09-18T08:45:08;100642.72;;;22.71;96.36
65997;BME280;52765;52.258;21.052;2023-09-18T08:47:38;100654.47;;;22.78;95.80
65997;BME280;52765;52.258;21.052;2023-09-18T08:50:06;100657.63;;;22.82;95.42
65997;BME280;52765;52.258;21.052;2023-09-18T08:52:33;100657.16;;;22.85;95.19
65997;BME280;52765;52.258;21.052;2023-09-18T08:54:59;100639.97;;;22.89;95.29
65997;BME280;52765;52.258;21.052;2023-09-18T08:57:27;100646.47;;;22.95;94.92
65997;BME280;52765;52.258;21.052;2023-09-18T08:59:54;100631.16;;;22.99;94.41
65997;BME280;52765;52.258;21.052;2023-09-18T09:02:20;100622.34;;;22.97;94.29
65997;BME280;52765;52.258;21.052;2023-09-18T09:04:46;100627.66;;;23.11;94.08
65997;BME280;52765;52.258;21.052;2023-09-18T09:07:11;100626.97;;;23.15;94.03
65997;BME280;52765;52.258;21.052;2023-09-18T09:09:37;100621.84;;;23.19;93.95
65997;BME280;52765;52.258;21.052;2023-09-18T09:12:04;100620.44;;;23.28;92.87
65997;BME280;52765;52.258;21.052;2023-09-18T09:14:29;100633.47;;;23.33;92.50
65997;BME280;52765;52.258;21.052;2023-09-18T09:16:56;100638.88;;;23.39;91.89
65997;BME280;52765;52.258;21.052;2023-09-18T09:19:47;100630.28;;;23.48;90.86
65997;BME280;52765;52.258;21.052;2023-09-18T09:22:22;100642.75;;;23.62;90.49
65997;BME280;52765;52.258;21.052;2023-09-18T09:24:48;100624.47;;;23.68;90.14
65997;BME280;52765;52.258;21.052;2023-09-18T09:27:14;100628.31;;;23.78;89.37
65997;BME280;52765;52.258;21.052;2023-09-18T09:29:40;100625.25;;;23.87;89.35
65997;BME280;52765;52.258;21.052;2023-09-18T09:32:15;100614.72;;;23.95;87.61
65997;BME280;52765;52.258;21.052;2023-09-18T09:34:42;100614.34;;;24.04;86.67
65997;BME280;52765;52.258;21.052;2023-09-18T09:37:08;100611.47;;;24.10;86.66
65997;BME280;52765;52.258;21.052;2023-09-18T09:39:34;100603.44;;;24.20;85.40
65997;BME280;52765;52.258;21.052;2023-09-18T09:42:00;100609.41;;;24.29;84.95
65997;BME280;52765;52.258;21.052;2023-09-18T09:44:31;100602.94;;;24.35;84.48
65997;BME280;52765;52.258;21.052;2023-09-18T09:46:59;100597.44;;;24.35;82.91
65997;BME280;52765;52.258;21.052;2023-09-18T09:49:24;100594.31;;;24.44;81.92
65997;BME280;52765;52.258;21.052;2023-09-18T09:51:53;100601.09;;;24.53;80.33
65997;BME280;52765;52.258;21.052;2023-09-18T09:54:39;100586.72;;;24.63;79.06
65997;BME280;52765;52.258;21.052;2023-09-18T09:57:06;100598.47;;;24.70;75.20
65997;BME280;52765;52.258;21.052;2023-09-18T09:59:31;100593.06;;;24.75;74.13
65997;BME280;52765;52.258;21.052;2023-09-18T10:02:00;100590.97;;;24.82;73.16
65997;BME280;52765;52.258;21.052;2023-09-18T10:04:28;100588.41;;;24.92;74.08
65997;BME280;52765;52.258;21.052;2023-09-18T10:07:01;100582.50;;;25.01;73.78
65997;BME280;52765;52.258;21.052;2023-09-18T10:09:33;100581.03;;;25.10;73.70
65997;BME280;52765;52.258;21.052;2023-09-18T10:12:00;100577.50;;;25.15;72.37
65997;BME280;52765;52.258;21.052;2023-09-18T10:14:30;100577.97;;;25.23;71.60
65997;BME280;52765;52.258;21.052;2023-09-18T10:16:59;100574.59;;;25.33;71.39
65997;BME280;52765;52.258;21.052;2023-09-18T10:19:38;100558.38;;;25.37;70.37
65997;BME280;52765;52.258;21.052;2023-09-18T10:24:39;100555.94;;;25.57;68.73
65997;BME280;52765;52.258;21.052;2023-09-18T10:27:06;100562.19;;;25.70;68.61
65997;BME280;52765;52.258;21.052;2023-09-18T10:29:35;100556.59;;;25.81;68.36
65997;BME280;52765;52.258;21.052;2023-09-18T10:32:05;100553.66;;;25.88;66.73
65997;BME280;52765;52.258;21.052;2023-09-18T10:34:33;100551.78;;;25.94;65.39
65997;BME280;52765;52.258;21.052;2023-09-18T10:37:00;100550.56;;;26.01;64.64
65997;BME280;52765;52.258;21.052;2023-09-18T10:39:28;100542.59;;;26.05;64.27
65997;BME280;52765;52.258;21.052;2023-09-18T10:41:55;100550.13;;;26.10;63.17
65997;BME280;52765;52.258;21.052;2023-09-18T10:44:27;100538.53;;;26.13;61.78
65997;BME280;52765;52.258;21.052;2023-09-18T10:46:53;100541.47;;;26.23;61.88
65997;BME280;52765;52.258;21.052;2023-09-18T10:49:19;100531.63;;;26.32;61.76
65997;BME280;52765;52.258;21.052;2023-09-18T10:51:48;100533.41;;;26.44;60.23
65997;BME280;52765;52.258;21.052;2023-09-18T10:54:23;100530.19;;;26.52;59.08
65997;BME280;52765;52.258;21.052;2023-09-18T10:56:49;100519.25;;;26.62;59.33
65997;BME280;52765;52.258;21.052;2023-09-18T10:59:15;100523.88;;;26.79;59.23
65997;BME280;52765;52.258;21.052;2023-09-18T11:01:42;100525.03;;;26.83;58.27
65997;BME280;52765;52.258;21.052;2023-09-18T11:04:08;100519.53;;;26.61;57.50
65997;BME280;52765;52.258;21.052;2023-09-18T11:09:20;100516.31;;;26.69;57.82
65997;BME280;52765;52.258;21.052;2023-09-18T11:11:46;100511.16;;;26.77;57.55
65997;BME280;52765;52.258;21.052;2023-09-18T11:14:17;100506.31;;;26.90;57.18
65997;BME280;52765;52.258;21.052;2023-09-18T11:16:42;100511.97;;;27.05;56.11
65997;BME280;52765;52.258;21.052;2023-09-18T11:19:11;100493.72;;;27.04;54.32
65997;BME280;52765;52.258;21.052;2023-09-18T11:21:39;100502.66;;;27.11;53.98
65997;BME280;52765;52.258;21.052;2023-09-18T11:24:07;100504.66;;;27.21;53.01
65997;BME280;52765;52.258;21.052;2023-09-18T11:26:39;100494.19;;;27.28;52.34
65997;BME280;52765;52.258;21.052;2023-09-18T11:29:10;100493.75;;;27.37;51.78
65997;BME280;52765;52.258;21.052;2023-09-18T11:31:50;100486.84;;;27.44;50.92
65997;BME280;52765;52.258;21.052;2023-09-18T11:34:20;100490.81;;;27.54;51.13
65997;BME280;52765;52.258;21.052;2023-09-18T11:36:46;100496.06;;;27.55;50.14
65997;BME280;52765;52.258;21.052;2023-09-18T11:39:12;100489.53;;;27.29;49.89
65997;BME280;52765;52.258;21.052;2023-09-18T11:41:39;100499.63;;;27.13;50.70
65997;BME280;52765;52.258;21.052;2023-09-18T11:46:45;100486.66;;;27.19;50.36
65997;BME280;52765;52.258;21.052;2023-09-18T11:49:19;100489.56;;;27.02;49.47
65997;BME280;52765;52.258;21.052;2023-09-18T11:51:54;100472.41;;;27.00;49.42
65997;BME280;52765;52.258;21.052;2023-09-18T11:54:27;100466.47;;;27.18;49.60
65997;BME280;52765;52.258;21.052;2023-09-18T11:56:55;100473.84;;;27.40;49.35
65997;BME280;52765;52.258;21.052;2023-09-18T11:59:42;100492.31;;;27.72;49.60
65997;BME280;52765;52.258;21.052;2023-09-18T12:02:09;100480.72;;;27.80;50.04
65997;BME280;52765;52.258;21.052;2023-09-18T12:04:38;100479.53;;;27.65;49.27
65997;BME280;52765;52.258;21.052;2023-09-18T12:07:04;100482.28;;;27.60;48.77
65997;BME280;52765;52.258;21.052;2023-09-18T12:09:31;100473.59;;;27.41;49.59
65997;BME280;52765;52.258;21.052;2023-09-18T12:12:01;100469.00;;;27.25;51.37
65997;BME280;52765;52.258;21.052;2023-09-18T12:14:33;100467.53;;;27.12;52.47
65997;BME280;52765;52.258;21.052;2023-09-18T12:17:01;100469.94;;;27.03;53.25
65997;BME280;52765;52.258;21.052;2023-09-18T12:19:28;100475.53;;;27.08;54.00
65997;BME280;52765;52.258;21.052;2023-09-18T12:21:54;100462.47;;;27.36;53.06
65997;BME280;52765;52.258;21.052;2023-09-18T12:24:27;100461.38;;;27.85;52.35
65997;BME280;52765;52.258;21.052;2023-09-18T12:26:53;100468.50;;;28.34;50.66
65997;BME280;52765;52.258;21.052;2023-09-18T12:29:20;100456.38;;;28.55;50.04
65997;BME280;52765;52.258;21.052;2023-09-18T12:31:46;100453.91;;;28.69;49.50
65997;BME280;52765;52.258;21.052;2023-09-18T12:34:17;100454.69;;;28.54;49.71
65997;BME280;52765;52.258;21.052;2023-09-18T12:36:43;100453.81;;;28.18;50.89
65997;BME280;52765;52.258;21.052;2023-09-18T12:39:09;100448.81;;;28.15;51.12
65997;BME280;52765;52.258;21.052;2023-09-18T12:41:37;100444.72;;;28.38;50.01
65997;BME280;52765;52.258;21.052;2023-09-18T12:44:05;100448.06;;;28.55;50.04